sensor_id;sensor_type;location;lat;lon;timestamp;P1;durP1;ratioP1;P2;durP2;ratioP2
75320;SDS011;68337;52.196;5.660;2023-05-01T00:00:04;2.65;;;1.98;;
75320;SDS011;68337;52.196;5.660;2023-05-01T00:02:30;2.17;;;1.90;;
75320;SDS011;68337;52.196;5.660;2023-05-01T00:04:56;4.47;;;2.15;;
75320;SDS011;68337;52.196;5.660;2023-05-01T00:07:21;2.75;;;1.80;;
75320;SDS011;68337;52.196;5.660;2023-05-01T00:09:49;5.05;;;2.10;;
75320;SDS011;68337;52.196;5.660;2023-05-01T00:12:15;2.53;;;1.80;;
75320;SDS011;68337;52.196;5.660;2023-05-01T00:14:41;2.28;;;1.95;;
75320;SDS011;68337;52.196;5.660;2023-05-01T00:17:07;3.13;;;2.15;;
75320;SDS011;68337;52.196;5.660;2023-05-01T00:19:33;2.13;;;1.95;;
75320;SDS011;68337;52.196;5.660;2023-05-01T00:21:58;2.33;;;1.75;;
75320;SDS011;68337;52.196;5.660;2023-05-01T00:24:24;4.20;;;2.30;;
75320;SDS011;68337;52.196;5.660;2023-05-01T00:26:50;2.15;;;1.80;;
75320;SDS011;68337;52.196;5.660;2023-05-01T00:29:16;2.72;;;1.77;;
75320;SDS011;68337;52.196;5.660;2023-05-01T00:31:42;2.35;;;2.15;;
75320;SDS011;68337;52.196;5.660;2023-05-01T00:34:08;3.85;;;1.92;;
75320;SDS011;68337;52.196;5.660;2023-05-01T00:36:34;1.90;;;1.58;;
75320;SDS011;68337;52.196;5.660;2023-05-01T00:39:00;2.00;;;1.85;;
75320;SDS011;68337;52.196;5.660;2023-05-01T00:41:26;2.97;;;2.17;;
75320;SDS011;68337;52.196;5.660;2023-05-01T00:43:52;2.88;;;1.85;;
75320;SDS011;68337;52.196;5.660;2023-05-01T00:46:18;2.15;;;1.90;;
75320;SDS011;68337;52.196;5.660;2023-05-01T00:48:44;3.55;;;2.05;;
75320;SDS011;68337;52.196;5.660;2023-05-01T00:51:09;4.85;;;1.92;;
75320;SDS011;68337;52.196;5.660;2023-05-01T00:53:39;2.50;;;1.90;;
75320;SDS011;68337;52.196;5.660;2023-05-01T00:56:05;2.45;;;2.00;;
75320;SDS011;68337;52.196;5.660;2023-05-01T00:58:32;3.83;;;2.10;;
75320;SDS011;68337;52.196;5.660;2023-05-01T01:00:58;4.68;;;2.28;;
75320;SDS011;68337;52.196;5.660;2023-05-01T01:03:25;2.63;;;2.33;;
75320;SDS011;68337;52.196;5.660;2023-05-01T01:08:48;3.05;;;1.90;;
75320;SDS011;68337;52.196;5.660;2023-05-01T01:11:32;2.47;;;2.08;;
75320;SDS011;68337;52.196;5.660;2023-05-01T01:14:05;5.28;;;1.95;;
75320;SDS011;68337;52.196;5.660;2023-05-01T01:22:19;2.22;;;2.05;;
75320;SDS011;68337;52.196;5.660;2023-05-01T01:30:30;3.42;;;2.35;;
75320;SDS011;68337;52.196;5.660;2023-05-01T01:35:27;3.67;;;2.40;;
75320;SDS011;68337;52.196;5.660;2023-05-01T01:38:06;3.25;;;2.25;;
75320;SDS011;68337;52.196;5.660;2023-05-01T01:40:54;4.07;;;2.50;;
75320;SDS011;68337;52.196;5.660;2023-05-01T01:43:23;2.70;;;2.38;;
75320;SDS011;68337;52.196;5.660;2023-05-01T01:46:00;5.55;;;2.55;;
75320;SDS011;68337;52.196;5.660;2023-05-01T01:48:33;4.72;;;2.63;;
75320;SDS011;68337;52.196;5.660;2023-05-01T01:51:02;3.15;;;2.40;;
75320;SDS011;68337;52.196;5.660;2023-05-01T01:53:32;2.72;;;2.38;;
75320;SDS011;68337;52.196;5.660;2023-05-01T01:56:02;4.10;;;2.30;;
75320;SDS011;68337;52.196;5.660;2023-05-01T01:58:31;2.25;;;2.05;;
75320;SDS011;68337;52.196;5.660;2023-05-01T02:00:59;2.63;;;2.42;;
75320;SDS011;68337;52.196;5.660;2023-05-01T02:03:27;6.75;;;2.70;;
75320;SDS011;68337;52.196;5.660;2023-05-01T02:05:54;3.53;;;2.83;;
75320;SDS011;68337;52.196;5.660;2023-05-01T02:08:21;4.95;;;2.50;;
75320;SDS011;68337;52.196;5.660;2023-05-01T02:10:49;3.92;;;2.65;;
75320;SDS011;68337;52.196;5.660;2023-05-01T02:13:15;2.55;;;2.35;;
75320;SDS011;68337;52.196;5.660;2023-05-01T02:15:43;5.93;;;3.00;;
75320;SDS011;68337;52.196;5.660;2023-05-01T02:18:10;2.92;;;2.45;;
75320;SDS011;68337;52.196;5.660;2023-05-01T02:20:37;2.92;;;2.20;;
75320;SDS011;68337;52.196;5.660;2023-05-01T02:23:05;4.32;;;2.85;;
75320;SDS011;68337;52.196;5.660;2023-05-01T02:25:32;4.65;;;2.35;;
75320;SDS011;68337;52.196;5.660;2023-05-01T02:27:59;6.28;;;2.63;;
75320;SDS011;68337;52.196;5.660;2023-05-01T02:30:28;3.03;;;2.65;;
75320;SDS011;68337;52.196;5.660;2023-05-01T02:32:54;3.95;;;3.42;;
75320;SDS011;68337;52.196;5.660;2023-05-01T02:35:21;3.35;;;3.05;;
75320;SDS011;68337;52.196;5.660;2023-05-01T02:37:47;3.33;;;2.85;;
75320;SDS011;68337;52.196;5.660;2023-05-01T02:40:13;5.32;;;3.55;;
75320;SDS011;68337;52.196;5.660;2023-05-01T02:42:42;5.13;;;3.03;;
75320;SDS011;68337;52.196;5.660;2023-05-01T02:45:09;7.70;;;3.47;;
75320;SDS011;68337;52.196;5.660;2023-05-01T02:47:41;3.65;;;2.70;;
75320;SDS011;68337;52.196;5.660;2023-05-01T02:50:09;4.38;;;2.72;;
75320;SDS011;68337;52.196;5.660;2023-05-01T02:52:37;6.78;;;3.03;;
75320;SDS011;68337;52.196;5.660;2023-05-01T02:55:03;4.47;;;3.10;;
75320;SDS011;68337;52.196;5.660;2023-05-01T02:57:31;6.32;;;3.30;;
75320;SDS011;68337;52.196;5.660;2023-05-01T02:59:57;3.45;;;2.88;;
75320;SDS011;68337;52.196;5.660;2023-05-01T03:02:22;4.28;;;3.25;;
75320;SDS011;68337;52.196;5.660;2023-05-01T03:04:48;3.17;;;2.88;;
75320;SDS011;68337;52.196;5.660;2023-05-01T03:07:14;4.18;;;3.38;;
75320;SDS011;68337;52.196;5.660;2023-05-01T03:09:40;4.60;;;3.65;;
75320;SDS011;68337;52.196;5.660;2023-05-01T03:12:05;4.57;;;3.40;;
75320;SDS011;68337;52.196;5.660;2023-05-01T03:14:31;4.78;;;3.35;;
75320;SDS011;68337;52.196;5.660;2023-05-01T03:16:57;4.25;;;3.00;;
75320;SDS011;68337;52.196;5.660;2023-05-01T03:19:23;6.57;;;3.20;;
75320;SDS011;68337;52.196;5.660;2023-05-01T03:21:48;3.80;;;3.40;;
75320;SDS011;68337;52.196;5.660;2023-05-01T03:24:14;4.35;;;3.38;;
75320;SDS011;68337;52.196;5.660;2023-05-01T03:26:40;4.70;;;2.95;;
75320;SDS011;68337;52.196;5.660;2023-05-01T03:29:06;4.18;;;3.42;;
75320;SDS011;68337;52.196;5.660;2023-05-01T03:31:32;5.95;;;3.72;;
75320;SDS011;68337;52.196;5.660;2023-05-01T03:33:58;4.28;;;3.38;;
75320;SDS011;68337;52.196;5.660;2023-05-01T03:36:23;5.93;;;3.38;;
75320;SDS011;68337;52.196;5.660;2023-05-01T03:38:49;6.40;;;3.78;;
75320;SDS011;68337;52.196;5.660;2023-05-01T03:41:15;5.13;;;3.88;;
75320;SDS011;68337;52.196;5.660;2023-05-01T03:43:41;5.55;;;3.72;;
75320;SDS011;68337;52.196;5.660;2023-05-01T03:46:07;4.50;;;4.05;;
75320;SDS011;68337;52.196;5.660;2023-05-01T03:48:32;8.23;;;4.32;;
75320;SDS011;68337;52.196;5.660;2023-05-01T03:50:58;7.18;;;3.65;;
75320;SDS011;68337;52.196;5.660;2023-05-01T03:53:24;5.97;;;4.18;;
75320;SDS011;68337;52.196;5.660;2023-05-01T03:55:49;5.82;;;3.90;;
75320;SDS011;68337;52.196;5.660;2023-05-01T03:58:15;5.65;;;4.20;;
75320;SDS011;68337;52.196;5.660;2023-05-01T04:00:41;6.50;;;3.80;;
75320;SDS011;68337;52.196;5.660;2023-05-01T04:03:07;6.47;;;3.80;;
75320;SDS011;68337;52.196;5.660;2023-05-01T04:05:32;4.68;;;4.13;;
75320;SDS011;68337;52.196;5.660;2023-05-01T04:07:58;6.07;;;4.13;;
75320;SDS011;68337;52.196;5.660;2023-05-01T04:10:24;7.82;;;3.97;;
75320;SDS011;68337;52.196;5.660;2023-05-01T04:12:50;6.25;;;3.85;;
75320;SDS011;68337;52.196;5.660;2023-05-01T04:15:16;11.48;;;4.28;;
75320;SDS011;68337;52.196;5.660;2023-05-01T04:17:41;6.25;;;4.30;;
75320;SDS011;68337;52.196;5.660;2023-05-01T04:20:08;5.65;;;4.03;;
75320;SDS011;68337;52.196;5.660;2023-05-01T04:22:34;8.25;;;4.38;;
75320;SDS011;68337;52.196;5.660;2023-05-01T04:25:00;7.18;;;4.22;;
75320;SDS011;68337;52.196;5.660;2023-05-01T04:27:26;10.30;;;4.38;;
75320;SDS011;68337;52.196;5.660;2023-05-01T04:29:52;5.80;;;4.03;;
75320;SDS011;68337;52.196;5.660;2023-05-01T04:32:17;4.75;;;4.07;;
75320;SDS011;68337;52.196;5.660;2023-05-01T04:34:43;5.72;;;3.88;;
75320;SDS011;68337;52.196;5.660;2023-05-01T04:37:09;5.30;;;4.18;;
75320;SDS011;68337;52.196;5.660;2023-05-01T04:39:35;8.57;;;3.97;;
75320;SDS011;68337;52.196;5.660;2023-05-01T04:42:01;6.35;;;3.67;;
75320;SDS011;68337;52.196;5.660;2023-05-01T04:44:27;9.75;;;4.45;;
75320;SDS011;68337;52.196;5.660;2023-05-01T04:46:53;6.15;;;4.03;;
75320;SDS011;68337;52.196;5.660;2023-05-01T04:49:20;7.88;;;4.38;;
75320;SDS011;68337;52.196;5.660;2023-05-01T04:51:46;5.13;;;4.18;;
75320;SDS011;68337;52.196;5.660;2023-05-01T04:54:12;6.82;;;4.05;;
75320;SDS011;68337;52.196;5.660;2023-05-01T04:56:38;6.25;;;3.55;;
75320;SDS011;68337;52.196;5.660;2023-05-01T04:59:03;10.43;;;4.30;;
75320;SDS011;68337;52.196;5.660;2023-05-01T05:01:29;6.18;;;4.22;;
75320;SDS011;68337;52.196;5.660;2023-05-01T05:03:55;6.78;;;3.85;;
75320;SDS011;68337;52.196;5.660;2023-05-01T05:06:21;7.57;;;4.47;;
75320;SDS011;68337;52.196;5.660;2023-05-01T05:08:46;4.30;;;3.90;;
75320;SDS011;68337;52.196;5.660;2023-05-01T05:11:16;6.50;;;4.15;;
75320;SDS011;68337;52.196;5.660;2023-05-01T05:13:42;5.60;;;3.78;;
75320;SDS011;68337;52.196;5.660;2023-05-01T05:16:08;9.23;;;3.85;;
75320;SDS011;68337;52.196;5.660;2023-05-01T05:18:36;4.63;;;3.60;;
75320;SDS011;68337;52.196;5.660;2023-05-01T05:21:05;7.95;;;4.10;;
75320;SDS011;68337;52.196;5.660;2023-05-01T05:23:32;7.30;;;4.18;;
75320;SDS011;68337;52.196;5.660;2023-05-01T05:25:58;7.68;;;4.13;;
75320;SDS011;68337;52.196;5.660;2023-05-01T05:28:28;10.15;;;4.47;;
75320;SDS011;68337;52.196;5.660;2023-05-01T05:30:54;4.78;;;4.20;;
75320;SDS011;68337;52.196;5.660;2023-05-01T05:33:20;7.68;;;4.10;;
75320;SDS011;68337;52.196;5.660;2023-05-01T05:35:49;5.65;;;3.80;;
75320;SDS011;68337;52.196;5.660;2023-05-01T05:38:15;5.75;;;3.15;;
75320;SDS011;68337;52.196;5.660;2023-05-01T05:40:41;6.00;;;4.43;;
75320;SDS011;68337;52.196;5.660;2023-05-01T05:43:07;6.93;;;4.70;;
75320;SDS011;68337;52.196;5.660;2023-05-01T05:45:34;10.23;;;7.68;;
75320;SDS011;68337;52.196;5.660;2023-05-01T05:48:00;10.27;;;7.68;;
75320;SDS011;68337;52.196;5.660;2023-05-01T05:50:26;8.25;;;6.18;;
75320;SDS011;68337;52.196;5.660;2023-05-01T05:52:52;8.45;;;6.00;;
75320;SDS011;68337;52.196;5.660;2023-05-01T05:55:20;8.93;;;6.38;;
75320;SDS011;68337;52.196;5.660;2023-05-01T05:57:46;7.65;;;6.07;;
75320;SDS011;68337;52.196;5.660;2023-05-01T06:00:12;8.70;;;5.28;;
75320;SDS011;68337;52.196;5.660;2023-05-01T06:02:41;5.88;;;4.47;;
75320;SDS011;68337;52.196;5.660;2023-05-01T06:05:07;9.32;;;5.55;;
75320;SDS011;68337;52.196;5.660;2023-05-01T06:07:34;6.13;;;4.80;;
75320;SDS011;68337;52.196;5.660;2023-05-01T06:10:01;7.45;;;4.40;;
75320;SDS011;68337;52.196;5.660;2023-05-01T06:12:29;7.13;;;3.85;;
75320;SDS011;68337;52.196;5.660;2023-05-01T06:14:56;8.00;;;4.15;;
75320;SDS011;68337;52.196;5.660;2023-05-01T06:17:22;5.80;;;3.70;;
75320;SDS011;68337;52.196;5.660;2023-05-01T06:19:52;7.07;;;4.30;;
75320;SDS011;68337;52.196;5.660;2023-05-01T06:22:20;5.97;;;4.00;;
75320;SDS011;68337;52.196;5.660;2023-05-01T06:24:46;6.88;;;3.92;;
75320;SDS011;68337;52.196;5.660;2023-05-01T06:27:15;5.57;;;4.35;;
75320;SDS011;68337;52.196;5.660;2023-05-01T06:29:41;8.15;;;4.22;;
75320;SDS011;68337;52.196;5.660;2023-05-01T06:32:07;6.63;;;3.90;;
75320;SDS011;68337;52.196;5.660;2023-05-01T06:34:33;5.78;;;3.90;;
75320;SDS011;68337;52.196;5.660;2023-05-01T06:36:58;7.53;;;4.05;;
75320;SDS011;68337;52.196;5.660;2023-05-01T06:39:24;6.43;;;3.97;;
75320;SDS011;68337;52.196;5.660;2023-05-01T06:41:50;10.10;;;3.88;;
75320;SDS011;68337;52.196;5.660;2023-05-01T06:44:16;10.35;;;3.92;;
75320;SDS011;68337;52.196;5.660;2023-05-01T06:46:41;7.68;;;3.90;;
75320;SDS011;68337;52.196;5.660;2023-05-01T06:49:07;7.47;;;4.00;;
75320;SDS011;68337;52.196;5.660;2023-05-01T06:51:33;10.85;;;3.85;;
75320;SDS011;68337;52.196;5.660;2023-05-01T06:53:58;8.88;;;3.75;;
75320;SDS011;68337;52.196;5.660;2023-05-01T06:56:24;4.85;;;3.47;;
75320;SDS011;68337;52.196;5.660;2023-05-01T06:58:50;5.20;;;3.72;;
75320;SDS011;68337;52.196;5.660;2023-05-01T07:01:16;7.63;;;4.05;;
75320;SDS011;68337;52.196;5.660;2023-05-01T07:03:42;6.70;;;4.13;;
75320;SDS011;68337;52.196;5.660;2023-05-01T07:06:08;6.40;;;4.28;;
75320;SDS011;68337;52.196;5.660;2023-05-01T07:08:34;10.25;;;4.18;;
75320;SDS011;68337;52.196;5.660;2023-05-01T07:11:03;5.93;;;4.40;;
75320;SDS011;68337;52.196;5.660;2023-05-01T07:13:29;9.98;;;4.43;;
75320;SDS011;68337;52.196;5.660;2023-05-01T07:15:54;11.43;;;4.60;;
75320;SDS011;68337;52.196;5.660;2023-05-01T07:18:20;4.57;;;3.60;;
75320;SDS011;68337;52.196;5.660;2023-05-01T07:20:49;4.93;;;3.80;;
75320;SDS011;68337;52.196;5.660;2023-05-01T07:23:15;6.40;;;3.70;;
75320;SDS011;68337;52.196;5.660;2023-05-01T07:25:41;5.45;;;4.28;;
75320;SDS011;68337;52.196;5.660;2023-05-01T07:28:10;4.72;;;3.70;;
75320;SDS011;68337;52.196;5.660;2023-05-01T07:30:35;12.13;;;4.00;;
75320;SDS011;68337;52.196;5.660;2023-05-01T07:33:02;8.00;;;3.78;;
75320;SDS011;68337;52.196;5.660;2023-05-01T07:35:30;7.85;;;3.63;;
75320;SDS011;68337;52.196;5.660;2023-05-01T07:37:59;5.07;;;3.50;;
75320;SDS011;68337;52.196;5.660;2023-05-01T07:40:24;7.50;;;4.30;;
75320;SDS011;68337;52.196;5.660;2023-05-01T07:42:50;4.55;;;3.33;;
75320;SDS011;68337;52.196;5.660;2023-05-01T07:45:16;5.18;;;3.90;;
75320;SDS011;68337;52.196;5.660;2023-05-01T07:47:47;9.15;;;4.60;;
75320;SDS011;68337;52.196;5.660;2023-05-01T07:50:16;8.20;;;3.90;;
75320;SDS011;68337;52.196;5.660;2023-05-01T07:52:42;10.98;;;3.80;;
75320;SDS011;68337;52.196;5.660;2023-05-01T07:55:08;8.77;;;4.10;;
75320;SDS011;68337;52.196;5.660;2023-05-01T07:57:34;6.32;;;3.90;;
75320;SDS011;68337;52.196;5.660;2023-05-01T08:00:00;4.78;;;3.38;;
75320;SDS011;68337;52.196;5.660;2023-05-01T08:02:26;5.78;;;3.58;;
75320;SDS011;68337;52.196;5.660;2023-05-01T08:04:52;8.52;;;4.40;;
75320;SDS011;68337;52.196;5.660;2023-05-01T08:07:18;7.68;;;4.43;;
75320;SDS011;68337;52.196;5.660;2023-05-01T08:09:44;7.13;;;3.72;;
75320;SDS011;68337;52.196;5.660;2023-05-01T08:12:10;8.02;;;4.20;;
75320;SDS011;68337;52.196;5.660;2023-05-01T08:14:36;6.82;;;3.42;;
75320;SDS011;68337;52.196;5.660;2023-05-01T08:17:02;7.72;;;3.33;;
75320;SDS011;68337;52.196;5.660;2023-05-01T08:19:27;5.97;;;3.65;;
75320;SDS011;68337;52.196;5.660;2023-05-01T08:21:53;7.40;;;3.33;;
75320;SDS011;68337;52.196;5.660;2023-05-01T08:24:19;6.13;;;3.22;;
75320;SDS011;68337;52.196;5.660;2023-05-01T08:26:45;4.75;;;2.95;;
75320;SDS011;68337;52.196;5.660;2023-05-01T08:29:11;4.43;;;3.20;;
75320;SDS011;68337;52.196;5.660;2023-05-01T08:31:36;6.70;;;3.40;;
75320;SDS011;68337;52.196;5.660;2023-05-01T08:34:03;6.40;;;3.38;;
75320;SDS011;68337;52.196;5.660;2023-05-01T08:36:30;7.20;;;3.22;;
75320;SDS011;68337;52.196;5.660;2023-05-01T08:38:56;6.63;;;2.88;;
75320;SDS011;68337;52.196;5.660;2023-05-01T08:41:22;4.50;;;2.38;;
75320;SDS011;68337;52.196;5.660;2023-05-01T08:43:49;4.28;;;2.47;;
75320;SDS011;68337;52.196;5.660;2023-05-01T08:49:15;4.65;;;2.78;;
75320;SDS011;68337;52.196;5.660;2023-05-01T08:51:43;3.47;;;2.28;;
75320;SDS011;68337;52.196;5.660;2023-05-01T08:54:11;9.25;;;2.47;;
75320;SDS011;68337;52.196;5.660;2023-05-01T08:56:38;5.30;;;2.50;;
75320;SDS011;68337;52.196;5.660;2023-05-01T08:59:05;4.10;;;2.08;;
75320;SDS011;68337;52.196;5.660;2023-05-01T09:01:35;5.25;;;3.10;;
75320;SDS011;68337;52.196;5.660;2023-05-01T09:04:02;4.47;;;2.38;;
75320;SDS011;68337;52.196;5.660;2023-05-01T09:06:30;10.80;;;2.63;;
75320;SDS011;68337;52.196;5.660;2023-05-01T09:08:56;7.95;;;2.83;;
75320;SDS011;68337;52.196;5.660;2023-05-01T09:11:25;8.23;;;2.75;;
75320;SDS011;68337;52.196;5.660;2023-05-01T09:13:51;6.60;;;2.50;;
75320;SDS011;68337;52.196;5.660;2023-05-01T09:16:18;7.70;;;2.53;;
75320;SDS011;68337;52.196;5.660;2023-05-01T09:18:44;4.97;;;2.15;;
75320;SDS011;68337;52.196;5.660;2023-05-01T09:21:11;4.75;;;2.50;;
75320;SDS011;68337;52.196;5.660;2023-05-01T09:23:37;4.65;;;2.45;;
75320;SDS011;68337;52.196;5.660;2023-05-01T09:26:05;5.80;;;3.10;;
75320;SDS011;68337;52.196;5.660;2023-05-01T09:28:41;4.57;;;2.28;;
75320;SDS011;68337;52.196;5.660;2023-05-01T09:31:22;5.30;;;3.05;;
75320;SDS011;68337;52.196;5.660;2023-05-01T09:33:57;7.25;;;2.97;;
75320;SDS011;68337;52.196;5.660;2023-05-01T09:36:25;3.75;;;2.30;;
75320;SDS011;68337;52.196;5.660;2023-05-01T09:38:52;5.60;;;2.70;;
75320;SDS011;68337;52.196;5.660;2023-05-01T09:41:18;4.55;;;2.50;;
75320;SDS011;68337;52.196;5.660;2023-05-01T09:43:53;4.40;;;2.33;;
75320;SDS011;68337;52.196;5.660;2023-05-01T09:46:20;3.13;;;1.90;;
75320;SDS011;68337;52.196;5.660;2023-05-01T09:48:57;3.72;;;2.25;;
75320;SDS011;68337;52.196;5.660;2023-05-01T09:51:33;5.07;;;2.90;;
75320;SDS011;68337;52.196;5.660;2023-05-01T09:54:00;5.38;;;2.50;;
75320;SDS011;68337;52.196;5.660;2023-05-01T09:56:28;5.43;;;2.38;;
75320;SDS011;68337;52.196;5.660;2023-05-01T09:58:56;8.73;;;3.40;;
75320;SDS011;68337;52.196;5.660;2023-05-01T10:01:38;8.15;;;3.83;;
75320;SDS011;68337;52.196;5.660;2023-05-01T10:04:07;5.68;;;3.08;;
75320;SDS011;68337;52.196;5.660;2023-05-01T10:06:33;4.00;;;1.77;;
75320;SDS011;68337;52.196;5.660;2023-05-01T10:09:00;5.97;;;2.10;;
75320;SDS011;68337;52.196;5.660;2023-05-01T10:11:28;5.72;;;2.42;;
75320;SDS011;68337;52.196;5.660;2023-05-01T10:14:04;5.97;;;2.17;;
75320;SDS011;68337;52.196;5.660;2023-05-01T10:16:33;5.32;;;2.10;;
75320;SDS011;68337;52.196;5.660;2023-05-01T10:19:00;8.43;;;2.33;;
75320;SDS011;68337;52.196;5.660;2023-05-01T10:21:26;7.18;;;2.10;;
75320;SDS011;68337;52.196;5.660;2023-05-01T10:23:51;4.50;;;1.92;;
75320;SDS011;68337;52.196;5.660;2023-05-01T10:26:19;3.55;;;1.88;;
75320;SDS011;68337;52.196;5.660;2023-05-01T10:28:45;4.22;;;1.67;;
75320;SDS011;68337;52.196;5.660;2023-05-01T10:31:13;4.82;;;1.73;;
75320;SDS011;68337;52.196;5.660;2023-05-01T10:33:43;3.85;;;2.15;;
75320;SDS011;68337;52.196;5.660;2023-05-01T10:36:11;5.65;;;1.98;;
75320;SDS011;68337;52.196;5.660;2023-05-01T10:38:42;3.95;;;1.92;;
75320;SDS011;68337;52.196;5.660;2023-05-01T10:41:12;5.43;;;1.50;;
75320;SDS011;68337;52.196;5.660;2023-05-01T10:43:41;3.50;;;1.50;;
75320;SDS011;68337;52.196;5.660;2023-05-01T10:53:40;2.72;;;1.42;;
75320;SDS011;68337;52.196;5.660;2023-05-01T11:04:04;2.75;;;1.10;;
75320;SDS011;68337;52.196;5.660;2023-05-01T11:09:39;5.70;;;1.20;;
75320;SDS011;68337;52.196;5.660;2023-05-01T11:12:15;4.57;;;1.40;;
75320;SDS011;68337;52.196;5.660;2023-05-01T11:15:01;1.85;;;1.20;;
75320;SDS011;68337;52.196;5.660;2023-05-01T11:22:36;1.88;;;1.30;;
75320;SDS011;68337;52.196;5.660;2023-05-01T11:25:22;3.08;;;1.10;;
75320;SDS011;68337;52.196;5.660;2023-05-01T11:30:16;3.75;;;1.30;;
75320;SDS011;68337;52.196;5.660;2023-05-01T11:32:47;6.15;;;1.13;;
75320;SDS011;68337;52.196;5.660;2023-05-01T11:35:23;1.98;;;1.10;;
75320;SDS011;68337;52.196;5.660;2023-05-01T11:37:50;3.35;;;1.27;;
75320;SDS011;68337;52.196;5.660;2023-05-01T11:40:21;2.83;;;1.45;;
75320;SDS011;68337;52.196;5.660;2023-05-01T11:42:48;2.55;;;1.55;;
75320;SDS011;68337;52.196;5.660;2023-05-01T11:45:17;5.07;;;1.48;;
75320;SDS011;68337;52.196;5.660;2023-05-01T11:47:43;1.33;;;0.90;;
75320;SDS011;68337;52.196;5.660;2023-05-01T11:50:09;2.13;;;1.30;;
75320;SDS011;68337;52.196;5.660;2023-05-01T11:52:45;4.05;;;1.45;;
75320;SDS011;68337;52.196;5.660;2023-05-01T11:55:17;1.83;;;1.23;;
75320;SDS011;68337;52.196;5.660;2023-05-01T11:57:51;5.88;;;2.42;;
75320;SDS011;68337;52.196;5.660;2023-05-01T12:00:28;7.68;;;2.42;;
75320;SDS011;68337;52.196;5.660;2023-05-01T12:03:21;4.25;;;2.20;;
75320;SDS011;68337;52.196;5.660;2023-05-01T12:05:47;5.30;;;1.88;;
75320;SDS011;68337;52.196;5.660;2023-05-01T12:10:42;5.32;;;2.38;;
75320;SDS011;68337;52.196;5.660;2023-05-01T12:13:10;4.93;;;2.25;;
75320;SDS011;68337;52.196;5.660;2023-05-01T12:15:38;5.40;;;2.13;;
75320;SDS011;68337;52.196;5.660;2023-05-01T12:18:06;4.40;;;2.00;;
75320;SDS011;68337;52.196;5.660;2023-05-01T12:20:33;3.05;;;1.60;;
75320;SDS011;68337;52.196;5.660;2023-05-01T12:23:04;6.88;;;2.05;;
75320;SDS011;68337;52.196;5.660;2023-05-01T12:25:32;5.75;;;2.78;;
75320;SDS011;68337;52.196;5.660;2023-05-01T12:28:02;5.47;;;3.20;;
75320;SDS011;68337;52.196;5.660;2023-05-01T12:30:35;7.05;;;3.53;;
75320;SDS011;68337;52.196;5.660;2023-05-01T12:33:11;6.93;;;4.15;;
75320;SDS011;68337;52.196;5.660;2023-05-01T12:35:41;7.47;;;4.32;;
75320;SDS011;68337;52.196;5.660;2023-05-01T12:38:11;8.05;;;4.40;;
75320;SDS011;68337;52.196;5.660;2023-05-01T12:40:38;5.53;;;4.53;;
75320;SDS011;68337;52.196;5.660;2023-05-01T12:43:04;9.20;;;4.40;;
75320;SDS011;68337;52.196;5.660;2023-05-01T12:45:36;7.90;;;4.78;;
75320;SDS011;68337;52.196;5.660;2023-05-01T12:48:13;6.93;;;4.55;;
75320;SDS011;68337;52.196;5.660;2023-05-01T12:50:39;10.05;;;5.65;;
75320;SDS011;68337;52.196;5.660;2023-05-01T12:53:09;6.72;;;5.10;;
75320;SDS011;68337;52.196;5.660;2023-05-01T12:55:41;8.38;;;4.97;;
75320;SDS011;68337;52.196;5.660;2023-05-01T12:58:09;9.02;;;4.20;;
75320;SDS011;68337;52.196;5.660;2023-05-01T13:01:08;6.07;;;3.53;;
75320;SDS011;68337;52.196;5.660;2023-05-01T13:03:27;5.90;;;2.95;;
75320;SDS011;68337;52.196;5.660;2023-05-01T13:08:31;9.40;;;2.80;;
75320;SDS011;68337;52.196;5.660;2023-05-01T13:11:08;5.18;;;2.75;;
75320;SDS011;68337;52.196;5.660;2023-05-01T13:13:36;6.13;;;3.42;;
75320;SDS011;68337;52.196;5.660;2023-05-01T13:16:09;6.57;;;3.40;;
75320;SDS011;68337;52.196;5.660;2023-05-01T13:18:43;5.82;;;3.10;;
75320;SDS011;68337;52.196;5.660;2023-05-01T13:21:12;6.13;;;4.13;;
75320;SDS011;68337;52.196;5.660;2023-05-01T13:23:52;5.35;;;3.67;;
75320;SDS011;68337;52.196;5.660;2023-05-01T13:26:26;7.15;;;4.10;;
75320;SDS011;68337;52.196;5.660;2023-05-01T13:28:55;5.97;;;4.25;;
75320;SDS011;68337;52.196;5.660;2023-05-01T13:31:21;9.13;;;4.53;;
75320;SDS011;68337;52.196;5.660;2023-05-01T13:33:48;9.50;;;4.88;;
75320;SDS011;68337;52.196;5.660;2023-05-01T13:36:16;7.13;;;4.60;;
75320;SDS011;68337;52.196;5.660;2023-05-01T13:38:43;6.90;;;4.43;;
75320;SDS011;68337;52.196;5.660;2023-05-01T13:41:17;5.82;;;3.17;;
75320;SDS011;68337;52.196;5.660;2023-05-01T13:43:45;3.58;;;3.05;;
75320;SDS011;68337;52.196;5.660;2023-05-01T13:46:15;3.30;;;2.28;;
75320;SDS011;68337;52.196;5.660;2023-05-01T13:48:41;3.72;;;2.25;;
75320;SDS011;68337;52.196;5.660;2023-05-01T13:51:08;3.70;;;2.53;;
75320;SDS011;68337;52.196;5.660;2023-05-01T13:53:35;6.88;;;2.95;;
75320;SDS011;68337;52.196;5.660;2023-05-01T13:56:02;5.60;;;2.85;;
75320;SDS011;68337;52.196;5.660;2023-05-01T13:58:29;7.18;;;3.53;;
75320;SDS011;68337;52.196;5.660;2023-05-01T14:00:55;5.10;;;3.13;;
75320;SDS011;68337;52.196;5.660;2023-05-01T14:03:21;7.88;;;3.85;;
75320;SDS011;68337;52.196;5.660;2023-05-01T14:05:47;5.22;;;3.50;;
75320;SDS011;68337;52.196;5.660;2023-05-01T14:08:12;7.32;;;3.85;;
75320;SDS011;68337;52.196;5.660;2023-05-01T14:10:39;7.18;;;4.50;;
75320;SDS011;68337;52.196;5.660;2023-05-01T14:13:05;8.48;;;4.63;;
75320;SDS011;68337;52.196;5.660;2023-05-01T14:15:34;5.78;;;4.35;;
75320;SDS011;68337;52.196;5.660;2023-05-01T14:18:06;6.53;;;4.13;;
75320;SDS011;68337;52.196;5.660;2023-05-01T14:20:32;6.88;;;4.75;;
75320;SDS011;68337;52.196;5.660;2023-05-01T14:22:58;8.13;;;4.93;;
75320;SDS011;68337;52.196;5.660;2023-05-01T14:25:27;6.43;;;4.65;;
75320;SDS011;68337;52.196;5.660;2023-05-01T14:27:56;11.65;;;5.15;;
75320;SDS011;68337;52.196;5.660;2023-05-01T14:30:25;5.60;;;4.85;;
75320;SDS011;68337;52.196;5.660;2023-05-01T14:32:57;7.53;;;4.50;;
75320;SDS011;68337;52.196;5.660;2023-05-01T14:35:27;6.32;;;4.82;;
75320;SDS011;68337;52.196;5.660;2023-05-01T14:37:53;11.63;;;6.10;;
75320;SDS011;68337;52.196;5.660;2023-05-01T14:40:25;6.70;;;5.68;;
75320;SDS011;68337;52.196;5.660;2023-05-01T14:42:52;9.13;;;6.47;;
75320;SDS011;68337;52.196;5.660;2023-05-01T14:45:19;5.78;;;5.20;;
75320;SDS011;68337;52.196;5.660;2023-05-01T14:47:45;7.40;;;5.20;;
75320;SDS011;68337;52.196;5.660;2023-05-01T14:50:17;8.18;;;5.82;;
75320;SDS011;68337;52.196;5.660;2023-05-01T14:52:45;8.88;;;5.15;;
75320;SDS011;68337;52.196;5.660;2023-05-01T14:55:12;8.40;;;4.57;;
75320;SDS011;68337;52.196;5.660;2023-05-01T14:57:41;13.13;;;5.22;;
75320;SDS011;68337;52.196;5.660;2023-05-01T15:00:09;6.13;;;5.10;;
75320;SDS011;68337;52.196;5.660;2023-05-01T15:02:35;7.85;;;4.57;;
75320;SDS011;68337;52.196;5.660;2023-05-01T15:05:02;9.63;;;4.15;;
75320;SDS011;68337;52.196;5.660;2023-05-01T15:07:28;6.80;;;4.43;;
75320;SDS011;68337;52.196;5.660;2023-05-01T15:09:54;6.45;;;3.70;;
75320;SDS011;68337;52.196;5.660;2023-05-01T15:12:20;6.35;;;4.95;;
75320;SDS011;68337;52.196;5.660;2023-05-01T15:14:46;5.10;;;4.28;;
75320;SDS011;68337;52.196;5.660;2023-05-01T15:17:11;8.35;;;4.72;;
75320;SDS011;68337;52.196;5.660;2023-05-01T15:19:37;6.20;;;4.40;;
75320;SDS011;68337;52.196;5.660;2023-05-01T15:22:06;5.43;;;4.78;;
75320;SDS011;68337;52.196;5.660;2023-05-01T15:24:31;6.40;;;3.70;;
75320;SDS011;68337;52.196;5.660;2023-05-01T15:26:57;10.55;;;4.15;;
75320;SDS011;68337;52.196;5.660;2023-05-01T15:29:23;5.85;;;4.40;;
75320;SDS011;68337;52.196;5.660;2023-05-01T15:31:48;6.70;;;4.05;;
75320;SDS011;68337;52.196;5.660;2023-05-01T15:34:14;7.43;;;4.57;;
75320;SDS011;68337;52.196;5.660;2023-05-01T15:36:40;5.57;;;4.38;;
75320;SDS011;68337;52.196;5.660;2023-05-01T15:39:05;5.75;;;4.57;;
75320;SDS011;68337;52.196;5.660;2023-05-01T15:41:35;11.60;;;4.78;;